createdAt,value
2018-12-09T00:01:16.161Z,9.73
2018-12-09T00:03:45.474Z,17.43
2018-12-09T00:06:14.826Z,8.10
2018-12-09T00:08:46.035Z,12.73
2018-12-09T00:11:14.415Z,5.60
2018-12-09T00:13:42.814Z,12.37
2018-12-09T00:16:10.146Z,11.90
2018-12-09T00:18:37.450Z,8.23
2018-12-09T00:21:04.751Z,9.20
2018-12-09T00:23:32.154Z,8.83
2018-12-09T00:25:59.446Z,11.00
2018-12-09T00:28:26.730Z,13.93
2018-12-09T00:30:54.158Z,8.30
2018-12-09T00:33:21.467Z,12.13
2018-12-09T00:35:49.808Z,10.17
2018-12-09T00:38:17.088Z,5.53
2018-12-09T00:40:44.386Z,7.87
2018-12-09T00:43:11.682Z,8.73
2018-12-09T00:45:39.109Z,7.93
2018-12-09T00:48:06.420Z,7.40
2018-12-09T00:50:33.718Z,5.80
2018-12-09T00:53:01.319Z,13.33
2018-12-09T00:55:28.635Z,6.77
2018-12-09T00:57:55.957Z,5.53
2018-12-09T01:00:23.283Z,5.50
2018-12-09T01:02:50.594Z,9.13
2018-12-09T01:05:17.939Z,6.13
2018-12-09T01:07:45.387Z,4.70
2018-12-09T01:10:12.735Z,7.30
2018-12-09T01:12:40.064Z,7.40
2018-12-09T01:15:07.515Z,4.53
2018-12-09T01:17:34.827Z,8.43
2018-12-09T01:20:02.191Z,5.03
2018-12-09T01:22:29.619Z,8.53
2018-12-09T01:24:56.982Z,5.70
2018-12-09T01:27:24.282Z,9.10
2018-12-09T01:29:51.582Z,10.83
2018-12-09T01:32:19.746Z,12.87
2018-12-09T01:34:47.183Z,8.13
2018-12-09T01:37:14.635Z,8.73
2018-12-09T01:39:41.946Z,6.50
2018-12-09T01:42:09.287Z,3.93
2018-12-09T01:44:36.610Z,4.80
2018-12-09T01:47:03.958Z,4.50
2018-12-09T01:49:31.603Z,5.90
2018-12-09T01:51:59.007Z,10.00
2018-12-09T01:54:26.314Z,4.23
2018-12-09T01:56:53.627Z,4.53
2018-12-09T01:59:20.971Z,4.80
2018-12-09T02:01:48.280Z,3.73
2018-12-09T02:04:16.307Z,8.73
2018-12-09T02:06:43.934Z,5.63
2018-12-09T02:09:11.411Z,7.80
2018-12-09T02:11:38.971Z,10.17
2018-12-09T02:14:06.616Z,12.40
2018-12-09T02:16:34.461Z,5.77
2018-12-09T02:19:16.086Z,6.37
2018-12-09T02:21:43.574Z,8.57
2018-12-09T02:24:11.254Z,7.10
2018-12-09T02:26:38.590Z,13.47
2018-12-09T02:29:05.896Z,9.10
2018-12-09T02:31:33.190Z,9.40
2018-12-09T02:34:00.527Z,12.10
2018-12-09T02:36:27.834Z,14.63
2018-12-09T02:38:55.134Z,15.50
2018-12-09T02:41:22.438Z,23.47
2018-12-09T02:43:49.751Z,12.17
2018-12-09T02:46:17.070Z,6.60
2018-12-09T02:48:44.487Z,10.07
2018-12-09T02:51:11.796Z,17.77
2018-12-09T02:53:39.215Z,14.53
2018-12-09T02:56:06.580Z,10.90
2018-12-09T02:58:33.882Z,10.03
2018-12-09T03:01:01.723Z,9.37
2018-12-09T03:03:30.175Z,9.87
2018-12-09T03:05:57.600Z,8.87
2018-12-09T03:08:25.196Z,11.67
2018-12-09T03:10:52.536Z,8.47
2018-12-09T03:13:20.252Z,8.70
2018-12-09T03:15:47.580Z,24.93
2018-12-09T03:18:15.046Z,13.60
2018-12-09T03:20:42.347Z,8.97
2018-12-09T03:23:09.762Z,13.47
2018-12-09T03:25:37.410Z,6.67
2018-12-09T03:28:04.730Z,8.57
2018-12-09T03:30:32.158Z,8.10
2018-12-09T03:32:59.588Z,10.87
2018-12-09T03:35:26.891Z,5.60
2018-12-09T03:37:54.602Z,13.50
2018-12-09T03:40:21.927Z,11.87
2018-12-09T03:42:49.240Z,12.13
2018-12-09T03:45:16.551Z,17.63
2018-12-09T03:47:43.972Z,14.40
2018-12-09T03:50:11.582Z,14.43
2018-12-09T03:52:38.887Z,11.80
2018-12-09T03:55:06.325Z,5.30
2018-12-09T03:57:33.933Z,13.40
2018-12-09T04:00:01.373Z,6.03
2018-12-09T04:02:29.999Z,12.90
2018-12-09T04:04:57.311Z,10.97
2018-12-09T04:07:24.619Z,12.10
2018-12-09T04:09:54.070Z,11.47
2018-12-09T04:12:21.362Z,11.53
2018-12-09T04:14:49.074Z,5.00
2018-12-09T04:17:16.551Z,6.43
2018-12-09T04:19:43.859Z,7.03
2018-12-09T04:22:11.127Z,7.80
2018-12-09T04:24:38.418Z,8.97
2018-12-09T04:27:06.021Z,7.40
2018-12-09T04:29:33.324Z,10.27
2018-12-09T04:32:00.706Z,7.90
2018-12-09T04:34:28.024Z,8.80
2018-12-09T04:36:55.326Z,7.67
2018-12-09T04:39:24.190Z,11.23
2018-12-09T04:41:51.507Z,7.47
2018-12-09T04:44:18.843Z,5.70
2018-12-09T04:46:46.156Z,8.47
2018-12-09T04:49:13.491Z,12.63
2018-12-09T04:51:52.427Z,5.93
2018-12-09T04:54:19.967Z,6.93
2018-12-09T04:56:47.543Z,6.07
2018-12-09T04:59:20.312Z,9.03
2018-12-09T05:01:47.752Z,6.23
2018-12-09T05:04:16.229Z,3.70
2018-12-09T05:06:43.555Z,6.80
2018-12-09T05:09:10.878Z,4.50
2018-12-09T05:11:38.316Z,6.03
2018-12-09T05:14:05.708Z,7.20
2018-12-09T05:16:33.043Z,6.67
2018-12-09T05:19:00.352Z,4.90
2018-12-09T05:21:27.762Z,6.43
2018-12-09T05:23:55.148Z,12.77
2018-12-09T05:26:22.989Z,12.03
2018-12-09T05:28:50.269Z,4.87
2018-12-09T05:31:17.562Z,5.40
2018-12-09T05:33:44.839Z,6.50
2018-12-09T05:36:12.169Z,6.23
2018-12-09T05:38:39.845Z,6.00
2018-12-09T05:41:07.159Z,7.17
2018-12-09T05:43:34.546Z,18.83
2018-12-09T05:46:01.838Z,7.70
2018-12-09T05:48:29.125Z,8.43
2018-12-09T05:50:56.409Z,6.10
2018-12-09T05:53:23.678Z,9.10
2018-12-09T05:55:50.962Z,6.87
2018-12-09T05:58:20.290Z,12.13
2018-12-09T06:00:47.582Z,6.63
2018-12-09T06:03:14.857Z,7.93
2018-12-09T06:05:42.162Z,12.93
2018-12-09T06:08:09.466Z,3.60
2018-12-09T06:10:36.766Z,6.83
2018-12-09T06:13:05.901Z,7.63
2018-12-09T06:15:33.386Z,9.33
2018-12-09T06:18:00.694Z,9.13
2018-12-09T06:20:28.002Z,4.93
2018-12-09T06:22:55.294Z,9.80
2018-12-09T06:25:22.611Z,9.83
2018-12-09T06:27:49.914Z,7.90
2018-12-09T06:30:17.274Z,4.20
2018-12-09T06:32:44.570Z,3.30
2018-12-09T06:35:12.006Z,8.70
2018-12-09T06:37:39.306Z,5.67
2018-12-09T06:40:07.014Z,6.30
2018-12-09T06:42:34.726Z,8.67
2018-12-09T06:45:02.069Z,9.50
2018-12-09T06:47:29.587Z,6.97
2018-12-09T06:49:56.879Z,11.57
2018-12-09T06:52:24.194Z,11.30
2018-12-09T06:54:51.491Z,7.83
2018-12-09T06:57:18.918Z,7.17
2018-12-09T06:59:46.342Z,3.07
2018-12-09T07:02:13.647Z,7.43
2018-12-09T07:04:40.978Z,6.83
2018-12-09T07:07:08.290Z,16.97
2018-12-09T07:09:36.007Z,11.93
2018-12-09T07:12:03.346Z,6.53
2018-12-09T07:14:30.621Z,8.97
2018-12-09T07:16:58.061Z,14.45
2018-12-09T07:19:25.355Z,6.73
2018-12-09T07:21:52.682Z,12.50
2018-12-09T07:24:19.982Z,10.80
2018-12-09T07:27:04.362Z,9.77
2018-12-09T07:29:31.780Z,11.70
2018-12-09T07:31:59.089Z,7.37
2018-12-09T07:34:26.374Z,8.70
2018-12-09T07:36:53.681Z,13.03
2018-12-09T07:39:20.957Z,11.07
2018-12-09T07:41:48.271Z,6.90
2018-12-09T07:44:15.594Z,5.10
2018-12-09T07:46:43.354Z,12.03
2018-12-09T07:49:10.689Z,13.63
2018-12-09T07:51:38.097Z,12.10
2018-12-09T07:54:05.538Z,12.57
2018-12-09T07:56:32.965Z,7.60
2018-12-09T07:59:00.267Z,11.80
2018-12-09T08:01:27.578Z,7.50
2018-12-09T08:03:54.908Z,7.13
2018-12-09T08:06:22.234Z,12.50
2018-12-09T08:08:49.545Z,10.47
2018-12-09T08:11:16.839Z,16.07
2018-12-09T08:13:44.160Z,11.60
2018-12-09T08:16:11.486Z,9.63
2018-12-09T08:18:38.798Z,10.20
2018-12-09T08:21:06.103Z,9.23
2018-12-09T08:23:33.428Z,7.50
2018-12-09T08:26:00.719Z,6.10
2018-12-09T08:28:28.040Z,2.83
2018-12-09T08:30:55.338Z,9.03
2018-12-09T08:33:22.775Z,8.93
2018-12-09T08:35:50.070Z,5.77
2018-12-09T08:38:17.378Z,10.17
2018-12-09T08:40:44.674Z,11.57
2018-12-09T08:43:12.411Z,6.53
2018-12-09T08:45:41.022Z,17.93
2018-12-09T08:48:08.520Z,9.57
2018-12-09T08:50:35.838Z,14.30
2018-12-09T08:53:03.170Z,8.27
2018-12-09T08:55:30.480Z,9.20
2018-12-09T08:57:57.850Z,9.03
2018-12-09T09:00:26.175Z,6.47
2018-12-09T09:02:53.499Z,11.27
2018-12-09T09:05:20.887Z,10.07
2018-12-09T09:07:48.191Z,6.33
2018-12-09T09:10:15.503Z,5.20
2018-12-09T09:12:43.211Z,5.93
2018-12-09T09:15:10.515Z,5.17
2018-12-09T09:17:37.940Z,4.00
2018-12-09T09:20:05.582Z,9.10
2018-12-09T09:22:32.849Z,3.63
2018-12-09T09:25:00.126Z,5.17
2018-12-09T09:27:27.526Z,4.53
2018-12-09T09:29:54.804Z,5.87
2018-12-09T09:32:23.099Z,6.83
2018-12-09T09:34:50.559Z,7.07
2018-12-09T09:37:17.879Z,3.43
2018-12-09T09:39:45.187Z,4.23
2018-12-09T09:42:12.534Z,3.17
2018-12-09T09:44:41.085Z,5.33
2018-12-09T09:47:08.571Z,6.23
2018-12-09T09:49:35.891Z,15.03
2018-12-09T09:52:03.263Z,5.17
2018-12-09T09:54:30.627Z,7.40
2018-12-09T09:56:57.963Z,3.93
2018-12-09T09:59:25.299Z,6.10
2018-12-09T10:01:53.167Z,8.93
2018-12-09T10:04:21.579Z,3.43
2018-12-09T10:06:48.943Z,5.07
2018-12-09T10:09:16.331Z,6.47
2018-12-09T10:11:43.639Z,2.23
2018-12-09T10:14:10.983Z,5.20
2018-12-09T10:16:38.292Z,10.13
2018-12-09T10:19:06.655Z,3.43
2018-12-09T10:21:33.962Z,7.50
2018-12-09T10:24:01.310Z,10.10
2018-12-09T10:26:36.245Z,7.77
2018-12-09T10:28:57.967Z,5.97
2018-12-09T10:31:25.263Z,10.97
2018-12-09T10:33:52.599Z,11.33
2018-12-09T10:36:19.914Z,11.20
2018-12-09T10:38:47.242Z,5.70
2018-12-09T10:41:14.550Z,7.40
2018-12-09T10:43:41.875Z,10.10
2018-12-09T10:46:09.222Z,6.10
2018-12-09T10:48:37.752Z,5.07
2018-12-09T10:51:06.494Z,7.43
2018-12-09T10:53:33.839Z,13.67
2018-12-09T10:56:01.250Z,5.00
2018-12-09T10:58:28.566Z,8.97
2018-12-09T11:02:01.304Z,9.47
2018-12-09T11:04:30.127Z,10.73
2018-12-09T11:06:57.434Z,9.73
2018-12-09T11:09:24.755Z,8.17
2018-12-09T11:11:52.058Z,5.17
2018-12-09T11:14:19.375Z,7.87
2018-12-09T11:16:46.682Z,16.63
2018-12-09T11:19:13.988Z,10.03
2018-12-09T11:21:41.294Z,9.03
2018-12-09T11:24:08.647Z,5.50
2018-12-09T11:26:35.971Z,4.90
2018-12-09T11:29:03.275Z,3.20
2018-12-09T11:31:30.594Z,16.60
2018-12-09T11:33:58.242Z,12.17
2018-12-09T11:36:25.671Z,3.87
2018-12-09T11:38:53.022Z,8.60
2018-12-09T11:41:20.326Z,3.90
2018-12-09T11:43:47.661Z,6.00
2018-12-09T11:46:15.774Z,0.80
2018-12-09T11:48:43.208Z,3.67
2018-12-09T11:51:10.507Z,2.70
2018-12-09T11:53:37.963Z,1.40
2018-12-09T11:56:06.127Z,0.60
2018-12-09T11:58:33.535Z,1.87
2018-12-09T12:01:01.845Z,5.50
2018-12-09T12:03:31.123Z,1.33
2018-12-09T12:05:58.406Z,2.23
2018-12-09T12:08:25.760Z,3.80
2018-12-09T12:10:53.066Z,6.20
2018-12-09T12:13:20.375Z,2.30
2018-12-09T12:15:47.695Z,2.93
2018-12-09T12:18:15.015Z,3.07
2018-12-09T12:20:42.643Z,3.30
2018-12-09T12:23:10.187Z,8.20
2018-12-09T12:25:37.506Z,6.70
2018-12-09T12:28:04.876Z,4.33
2018-12-09T12:30:32.487Z,3.80
2018-12-09T12:32:59.786Z,3.30
2018-12-09T12:35:27.097Z,9.07
2018-12-09T12:37:55.339Z,7.47
2018-12-09T12:40:22.726Z,2.10
2018-12-09T12:42:50.166Z,6.97
2018-12-09T12:45:17.539Z,1.97
2018-12-09T12:47:45.095Z,7.53
2018-12-09T12:50:13.656Z,6.07
2018-12-09T12:52:41.395Z,10.60
2018-12-09T12:55:08.695Z,8.13
2018-12-09T12:57:36.071Z,13.33
2018-12-09T13:00:06.710Z,3.53
2018-12-09T13:02:36.034Z,5.70
2018-12-09T13:05:03.380Z,9.20
2018-12-09T13:07:31.457Z,13.63
2018-12-09T13:09:58.918Z,16.90
2018-12-09T13:12:26.250Z,10.93
2018-12-09T13:14:53.550Z,14.13
2018-12-09T13:17:21.198Z,15.33
2018-12-09T13:19:48.518Z,10.77
2018-12-09T13:22:15.859Z,5.87
2018-12-09T13:24:43.167Z,8.70
2018-12-09T13:27:11.175Z,6.83
2018-12-09T13:29:38.619Z,7.67
2018-12-09T13:32:06.507Z,4.27
2018-12-09T13:34:33.950Z,8.80
2018-12-09T13:37:01.314Z,5.63
2018-12-09T13:39:28.631Z,8.80
2018-12-09T13:41:55.987Z,4.97
2018-12-09T13:44:24.514Z,9.83
2018-12-09T13:46:52.903Z,7.03
2018-12-09T13:49:20.204Z,5.57
2018-12-09T13:51:48.781Z,13.40
2018-12-09T13:54:16.086Z,14.33
2018-12-09T13:59:33.716Z,13.73
2018-12-09T14:02:00.916Z,10.20
2018-12-09T14:04:29.056Z,9.03
2018-12-09T14:06:56.300Z,11.60
2018-12-09T14:09:23.758Z,11.50
2018-12-09T14:11:50.965Z,8.83
2018-12-09T14:14:18.493Z,8.93
2018-12-09T14:16:45.829Z,6.53
2018-12-09T14:19:13.040Z,7.50
2018-12-09T14:21:40.556Z,8.20
2018-12-09T14:24:07.776Z,7.40
2018-12-09T14:26:35.007Z,10.80
2018-12-09T14:29:02.276Z,9.63
2018-12-09T14:31:31.371Z,20.40
2018-12-09T14:33:58.682Z,6.93
2018-12-09T14:36:27.097Z,16.20
2018-12-09T14:38:54.407Z,15.73
2018-12-09T14:41:21.847Z,11.80
2018-12-09T14:43:49.139Z,22.87
2018-12-09T14:46:16.430Z,14.13
2018-12-09T14:48:43.922Z,10.10
2018-12-09T14:51:11.583Z,8.73
2018-12-09T14:53:38.834Z,17.90
2018-12-09T14:56:06.097Z,20.97
2018-12-09T14:58:33.366Z,11.73
2018-12-09T15:01:00.743Z,10.97
2018-12-09T15:09:21.952Z,10.73
2018-12-09T15:11:49.376Z,14.70
2018-12-09T15:14:17.347Z,14.33
2018-12-09T15:16:44.845Z,22.60
2018-12-09T15:19:13.188Z,12.40
2018-12-09T15:21:57.140Z,15.70
2018-12-09T15:24:24.529Z,16.83
2018-12-09T15:26:51.766Z,17.57
2018-12-09T15:29:23.086Z,17.60
2018-12-09T15:31:50.552Z,17.30
2018-12-09T15:34:17.794Z,13.17
2018-12-09T15:36:45.247Z,15.17
2018-12-09T15:39:12.616Z,16.43
2018-12-09T15:41:39.967Z,12.70
2018-12-09T15:44:07.217Z,17.53
2018-12-09T15:46:34.577Z,14.83
2018-12-09T15:49:01.802Z,20.00
2018-12-09T15:51:29.072Z,25.00
2018-12-09T15:53:57.913Z,9.67
2018-12-09T15:56:25.294Z,17.80
2018-12-09T15:58:52.556Z,8.87
2018-12-09T16:01:19.828Z,12.23
2018-12-09T16:04:04.004Z,19.27
2018-12-09T16:06:31.840Z,11.77
2018-12-09T16:08:59.089Z,11.23
2018-12-09T16:11:26.344Z,20.10
2018-12-09T16:13:53.828Z,18.70
2018-12-09T16:16:21.088Z,10.67
2018-12-09T16:18:48.344Z,22.57
2018-12-09T16:21:15.580Z,15.60
2018-12-09T16:23:42.808Z,15.57
2018-12-09T16:26:10.060Z,22.00
2018-12-09T16:28:37.432Z,20.27
2018-12-09T16:31:04.672Z,14.87
2018-12-09T16:33:31.924Z,14.33
2018-12-09T16:35:59.153Z,20.13
2018-12-09T16:38:27.080Z,25.10
2018-12-09T16:40:54.321Z,19.10
2018-12-09T16:43:21.549Z,16.13
2018-12-09T16:45:48.777Z,21.87
2018-12-09T16:48:16.045Z,18.40
2018-12-09T16:50:43.280Z,17.63
2018-12-09T16:53:10.513Z,26.13
2018-12-09T16:55:37.764Z,20.90
2018-12-09T16:58:05.013Z,28.27
2018-12-09T17:00:32.264Z,30.67
2018-12-09T17:02:59.933Z,27.50
2018-12-09T17:05:27.156Z,23.33
2018-12-09T17:07:54.370Z,17.07
2018-12-09T17:10:21.624Z,21.20
2018-12-09T17:12:48.866Z,22.53
2018-12-09T17:15:16.192Z,27.83
2018-12-09T17:17:44.591Z,29.27
2018-12-09T17:20:12.017Z,21.73
2018-12-09T17:22:39.268Z,21.77
2018-12-09T17:25:07.992Z,12.70
2018-12-09T17:27:35.260Z,27.90
2018-12-09T17:30:02.616Z,24.00
2018-12-09T17:32:30.287Z,35.33
2018-12-09T17:34:58.916Z,20.33
2018-12-09T17:37:26.141Z,22.40
2018-12-09T17:39:53.521Z,16.73
2018-12-09T17:42:22.046Z,16.87
2018-12-09T17:44:49.277Z,23.07
2018-12-09T17:47:17.668Z,23.90
2018-12-09T17:49:45.016Z,19.10
2018-12-09T17:52:12.253Z,12.07
2018-12-09T17:54:39.664Z,21.80
2018-12-09T17:57:07.423Z,30.17
2018-12-09T17:59:34.655Z,16.00
2018-12-09T18:02:01.928Z,16.53
2018-12-09T18:04:29.280Z,19.73
2018-12-09T18:06:56.565Z,15.20
2018-12-09T18:09:23.829Z,14.10
2018-12-09T18:11:51.057Z,23.70
2018-12-09T18:14:18.291Z,18.03
2018-12-09T18:16:45.607Z,19.93
2018-12-09T18:19:12.840Z,15.10
2018-12-09T18:21:40.196Z,25.53
2018-12-09T18:24:07.605Z,18.57
2018-12-09T18:27:59.508Z,10.67
2018-12-09T18:30:27.100Z,17.43
2018-12-09T18:32:54.344Z,18.00
2018-12-09T18:35:21.578Z,17.10
2018-12-09T18:37:49.686Z,22.60
2018-12-09T18:40:16.904Z,22.70
2018-12-09T18:42:44.309Z,29.60
2018-12-09T18:45:11.709Z,17.83
2018-12-09T18:47:40.125Z,15.00
2018-12-09T18:50:07.468Z,17.03
2018-12-09T18:52:34.736Z,15.80
2018-12-09T18:55:02.086Z,16.73
2018-12-09T18:57:29.666Z,15.60
2018-12-09T18:59:57.362Z,29.20
2018-12-09T19:02:24.856Z,22.23
2018-12-09T19:04:52.484Z,30.43
2018-12-09T19:07:21.244Z,20.23
2018-12-09T19:09:48.749Z,27.87
2018-12-09T19:12:16.212Z,17.77
2018-12-09T19:14:43.930Z,18.30
2018-12-09T19:17:11.407Z,15.23
2018-12-09T19:19:38.780Z,14.50
2018-12-09T19:22:06.081Z,12.53
2018-12-09T19:24:33.349Z,15.40
2018-12-09T19:27:00.708Z,16.30
2018-12-09T19:29:28.081Z,13.73
2018-12-09T19:31:55.643Z,18.60
2018-12-09T19:34:23.992Z,20.33
2018-12-09T19:36:51.485Z,14.13
2018-12-09T19:39:18.861Z,14.77
2018-12-09T19:41:48.169Z,14.43
2018-12-09T19:44:15.552Z,16.90
2018-12-09T19:46:42.912Z,16.50
2018-12-09T19:49:10.297Z,17.40
2018-12-09T19:51:37.552Z,19.07
2018-12-09T19:54:04.789Z,16.60
2018-12-09T19:56:32.175Z,14.40
2018-12-09T19:58:59.403Z,11.70
2018-12-09T20:01:26.652Z,25.77
2018-12-09T20:03:54.193Z,20.23
2018-12-09T20:06:21.444Z,23.93
2018-12-09T20:08:48.817Z,20.70
2018-12-09T20:11:16.096Z,13.50
2018-12-09T20:13:43.502Z,17.57
2018-12-09T20:16:11.291Z,18.20
2018-12-09T20:18:41.196Z,18.67
2018-12-09T20:21:10.604Z,17.80
2018-12-09T20:23:37.865Z,23.80
2018-12-09T20:26:05.137Z,15.57
2018-12-09T20:28:32.380Z,22.47
2018-12-09T20:30:59.741Z,24.30
2018-12-09T20:33:29.169Z,16.20
2018-12-09T20:35:57.499Z,24.03
2018-12-09T20:38:24.754Z,12.07
2018-12-09T20:40:52.013Z,17.17
2018-12-09T20:43:19.255Z,12.33
2018-12-09T20:45:46.512Z,18.70
2018-12-09T20:48:13.884Z,18.27
2018-12-09T20:50:41.420Z,26.67
2018-12-09T20:53:08.740Z,14.87
2018-12-09T20:55:36.026Z,25.63
2018-12-09T20:58:03.273Z,8.23
2018-12-09T21:00:30.522Z,16.67
2018-12-09T21:02:58.341Z,14.00
2018-12-09T21:05:26.077Z,9.50
2018-12-09T21:07:53.300Z,11.77
2018-12-09T21:10:20.776Z,22.00
2018-12-09T21:12:48.014Z,7.73
2018-12-09T21:15:15.234Z,18.33
2018-12-09T21:17:42.528Z,14.33
2018-12-09T21:20:09.972Z,17.73
2018-12-09T21:22:37.240Z,16.00
2018-12-09T21:25:04.648Z,18.27
2018-12-09T21:27:32.999Z,11.27
2018-12-09T21:30:00.508Z,10.78
2018-12-09T21:32:27.797Z,10.15
2018-12-09T21:34:55.923Z,17.97
2018-12-09T21:37:23.176Z,17.05
2018-12-09T21:39:50.565Z,11.70
2018-12-09T21:42:17.915Z,21.37
2018-12-09T21:44:45.164Z,11.23
2018-12-09T21:47:12.422Z,18.70
2018-12-09T21:49:40.024Z,15.27
2018-12-09T21:52:07.621Z,14.23
2018-12-09T21:54:35.012Z,11.83
2018-12-09T21:57:02.253Z,17.57
2018-12-09T21:59:30.708Z,16.48
2018-12-09T22:01:58.020Z,15.60
2018-12-09T22:05:50.248Z,16.63
2018-12-09T22:08:17.529Z,14.65
2018-12-09T22:10:44.760Z,19.73
2018-12-09T22:13:12.169Z,12.50
2018-12-09T22:15:39.553Z,17.80
2018-12-09T22:18:06.949Z,13.85
2018-12-09T22:20:34.509Z,13.68
2018-12-09T22:23:01.777Z,19.98
2018-12-09T22:25:29.497Z,23.67
2018-12-09T22:27:57.825Z,16.75
2018-12-09T22:30:26.233Z,17.42
2018-12-09T22:32:53.640Z,15.85
2018-12-09T22:35:20.924Z,13.85
2018-12-09T22:37:48.392Z,11.73
2018-12-09T22:40:15.620Z,10.93
2018-12-09T22:42:42.852Z,25.68
2018-12-09T22:45:10.754Z,13.73
2018-12-09T22:47:37.995Z,12.40
2018-12-09T22:50:05.473Z,20.40
2018-12-09T22:52:33.716Z,21.65
2018-12-09T22:55:00.964Z,13.15
2018-12-09T22:57:28.213Z,18.23
2018-12-09T22:59:55.482Z,19.50
2018-12-09T23:02:28.489Z,6.53
2018-12-09T23:04:56.029Z,9.75
2018-12-09T23:07:29.137Z,9.93
2018-12-09T23:09:56.495Z,14.53
2018-12-09T23:12:23.741Z,9.85
2018-12-09T23:14:50.998Z,9.30
2018-12-09T23:17:18.396Z,11.33
2018-12-09T23:19:45.748Z,13.30
2018-12-09T23:22:30.048Z,16.27
2018-12-09T23:24:57.324Z,12.78
2018-12-09T23:27:24.588Z,20.65
2018-12-09T23:29:52.020Z,12.30
2018-12-09T23:32:19.376Z,20.02
2018-12-09T23:34:46.616Z,7.50
2018-12-09T23:37:13.994Z,12.15
2018-12-09T23:39:41.292Z,6.75
2018-12-09T23:42:08.541Z,10.08
2018-12-09T23:44:35.800Z,10.82
2018-12-09T23:47:03.060Z,15.43
2018-12-09T23:49:30.294Z,12.00
2018-12-09T23:51:58.425Z,12.13
2018-12-09T23:54:25.929Z,11.17
2018-12-09T23:56:53.276Z,14.87
2018-12-09T23:59:20.541Z,6.00
